Time;durP1;ratioP1;P1;durP2;ratioP2;P2;SDS_P1;SDS_P2;PMS_P1;PMS_P2;Temp;Humidity;BMP_temperature;BMP_pressure;BME280_temperature;BME280_humidity;BME280_pressure;Samples;Min_cycle;Max_cycle;Signal;HPM_P1;HPM_P2
2022/06/24 00:02:12;;;;;;;;;;;;;;;19.97;51.92;100859.28;1765185;80;25795;-55
2022/06/24 00:04:39;;;;;;;;;;;;;;;19.95;51.63;100861.36;1756511;80;25438;-54
2022/06/24 00:07:16;;;;;;;;;;;;;;;19.93;51.56;100859.36;1754160;80;26951;-54
2022/06/24 00:09:43;;;;;;;;;;;;;;;19.91;51.57;100861.44;1769052;80;25713;-56
2022/06/24 00:12:12;;;;;;;;;;;;;;;19.89;51.57;100860.78;1761095;80;25846;-56
2022/06/24 00:14:41;;;;;;;;;;;;;;;19.89;52.00;100863.52;1749578;80;25993;-55
2022/06/24 00:17:09;;;;;;;;;;;;;;;19.84;52.29;100870.06;1764379;80;25746;-56
2022/06/24 00:20:02;;;;;;;;;;;;;;;19.81;52.12;100863.62;1756709;80;27600;-56
2022/06/24 00:22:30;;;;;;;;;;;;;;;19.82;52.20;100870.77;1768842;80;25774;-55
2022/06/24 00:25:14;;;;;;;;;;;;;;;19.81;51.99;100869.08;1758865;80;25911;-55
2022/06/24 00:27:43;;;;;;;;;;;;;;;19.82;52.03;100870.77;1749872;80;25782;-55
2022/06/24 00:30:14;;;;;;;;;;;;;;;19.80;52.49;100870.97;1759406;80;25833;-53
2022/06/24 00:32:42;;;;;;;;;;;;;;;19.77;52.07;100873.22;1765572;80;27487;-55
2022/06/24 00:35:12;;;;;;;;;;;;;;;19.76;52.38;100874.28;1759249;80;25824;-55
2022/06/24 00:37:40;;;;;;;;;;;;;;;19.73;52.25;100869.20;1749453;80;25813;-55
2022/06/24 00:40:13;;;;;;;;;;;;;;;19.73;52.19;100867.84;1749456;80;25759;-54
2022/06/24 00:42:45;;;;;;;;;;;;;;;19.71;52.13;100869.41;1772342;80;25659;-55
2022/06/24 00:45:32;;;;;;;;;;;;;;;19.69;52.03;100863.30;1752700;80;27600;-55
2022/06/24 00:48:00;;;;;;;;;;;;;;;19.67;52.27;100863.50;1724854;81;25645;-54
2022/06/24 00:50:29;;;;;;;;;;;;;;;19.64;52.24;100865.23;1711548;83;25773;-54
2022/06/24 00:52:58;;;;;;;;;;;;;;;19.63;52.46;100873.63;1689508;83;25853;-55
2022/06/24 00:55:28;;;;;;;;;;;;;;;19.58;52.74;100863.30;1729900;81;25786;-56
2022/06/24 00:57:56;;;;;;;;;;;;;;;19.54;52.59;100861.45;1719482;81;28527;-55
2022/06/24 01:00:28;;;;;;;;;;;;;;;19.50;52.66;100860.16;1728597;81;25826;-53
2022/06/24 01:03:03;;;;;;;;;;;;;;;19.45;52.70;100860.41;1704001;81;25588;-56
2022/06/24 01:05:32;;;;;;;;;;;;;;;19.36;53.10;100864.63;1718627;81;26430;-56
2022/06/24 01:08:07;;;;;;;;;;;;;;;19.28;53.28;100867.47;1731121;81;26021;-55
2022/06/24 01:10:34;;;;;;;;;;;;;;;19.24;53.67;100866.14;1724182;82;27517;-56
2022/06/24 01:13:01;;;;;;;;;;;;;;;19.17;53.91;100864.72;1712959;81;25990;-56
2022/06/24 01:15:28;;;;;;;;;;;;;;;19.12;53.87;100867.69;1705482;81;25503;-56
2022/06/24 01:17:54;;;;;;;;;;;;;;;19.06;54.90;100876.11;1724478;81;25874;-55
2022/06/24 01:20:21;;;;;;;;;;;;;;;18.98;54.30;100873.48;1712164;81;25809;-55
2022/06/24 01:22:47;;;;;;;;;;;;;;;18.93;55.24;100874.05;1717308;82;28252;-56
2022/06/24 01:25:14;;;;;;;;;;;;;;;18.84;54.96;100877.34;1712599;81;25996;-55
2022/06/24 01:27:41;;;;;;;;;;;;;;;18.80;55.79;100876.05;1727395;81;25726;-56
2022/06/24 01:30:10;;;;;;;;;;;;;;;18.72;55.12;100879.70;1705927;83;25943;-56
2022/06/24 01:32:36;;;;;;;;;;;;;;;18.70;55.30;100876.84;1711376;83;26153;-56
2022/06/24 01:35:04;;;;;;;;;;;;;;;18.65;55.32;100876.57;1711909;83;27738;-55
2022/06/24 01:37:31;;;;;;;;;;;;;;;18.63;55.45;100877.27;1729904;82;25740;-55
2022/06/24 01:39:57;;;;;;;;;;;;;;;18.56;55.56;100877.16;1721014;81;25898;-54
2022/06/24 01:42:23;;;;;;;;;;;;;;;18.51;55.53;100879.08;1687843;82;26781;-55
2022/06/24 01:44:50;;;;;;;;;;;;;;;18.44;55.51;100874.05;1692202;83;25500;-56
2022/06/24 01:47:16;;;;;;;;;;;;;;;18.41;55.53;100884.80;1738668;81;27433;-56
2022/06/24 01:49:43;;;;;;;;;;;;;;;18.40;55.62;100887.20;1742395;82;25507;-56
2022/06/24 01:52:10;;;;;;;;;;;;;;;18.39;55.57;100890.08;1742657;82;25672;-54
2022/06/24 01:54:37;;;;;;;;;;;;;;;18.36;55.58;100889.95;1741329;81;26133;-56
2022/06/24 01:57:05;;;;;;;;;;;;;;;18.32;55.86;100892.72;1743148;80;25879;-54
2022/06/24 01:59:31;;;;;;;;;;;;;;;18.28;55.83;100896.83;1741466;81;28228;-56
2022/06/24 02:01:58;;;;;;;;;;;;;;;18.22;56.35;100886.16;1739912;81;26303;-55
2022/06/24 02:04:24;;;;;;;;;;;;;;;18.19;56.08;100896.08;1727562;82;25675;-55
2022/06/24 02:06:51;;;;;;;;;;;;;;;18.16;56.53;100889.62;1727921;82;27874;-55
2022/06/24 02:09:17;;;;;;;;;;;;;;;18.12;56.51;100891.00;1718705;82;25749;-55
2022/06/24 02:14:29;;;;;;;;;;;;;;;18.02;57.34;100897.23;1705548;82;25508;-55
2022/06/24 02:16:56;;;;;;;;;;;;;;;18.01;57.44;100902.34;1712844;81;25743;-55
2022/06/24 02:19:23;;;;;;;;;;;;;;;17.97;57.39;100899.14;1738589;81;25846;-55
2022/06/24 02:21:49;;;;;;;;;;;;;;;17.97;57.25;100897.78;1710176;81;25685;-55
2022/06/24 02:24:16;;;;;;;;;;;;;;;17.98;57.37;100902.17;1736154;81;27490;-56
2022/06/24 02:26:43;;;;;;;;;;;;;;;17.96;57.97;100898.81;1723290;81;25898;-55
2022/06/24 02:29:10;;;;;;;;;;;;;;;17.95;57.70;100903.89;1729771;82;25455;-55
2022/06/24 02:31:38;;;;;;;;;;;;;;;17.93;57.77;100900.49;1738157;82;25936;-55
2022/06/24 02:34:05;;;;;;;;;;;;;;;17.93;57.83;100894.52;1727036;81;25673;-55
2022/06/24 02:36:31;;;;;;;;;;;;;;;17.94;58.40;100894.86;1736862;81;27546;-55
2022/06/24 02:38:58;;;;;;;;;;;;;;;17.96;58.04;100899.64;1740116;81;25808;-55
2022/06/24 02:41:24;;;;;;;;;;;;;;;18.00;58.29;100902.84;1754110;80;25698;-55
2022/06/24 02:43:52;;;;;;;;;;;;;;;18.01;58.18;100901.81;1749601;80;25866;-54
2022/06/24 02:46:18;;;;;;;;;;;;;;;18.05;58.17;100895.49;1752078;80;25419;-55
2022/06/24 02:48:46;;;;;;;;;;;;;;;18.09;58.27;100896.31;1742427;81;28014;-55
2022/06/24 02:51:14;;;;;;;;;;;;;;;18.13;58.09;100900.87;1739565;81;25467;-53
2022/06/24 02:53:42;;;;;;;;;;;;;;;18.16;58.06;100900.52;1738486;80;25826;-55
2022/06/24 02:56:11;;;;;;;;;;;;;;;18.22;57.92;100902.49;1741451;81;25787;-55
2022/06/24 02:58:38;;;;;;;;;;;;;;;18.19;58.04;100906.96;1738735;82;25685;-55
2022/06/24 03:01:05;;;;;;;;;;;;;;;18.13;57.79;100909.03;1743043;82;27710;-55
2022/06/24 03:03:33;;;;;;;;;;;;;;;18.16;58.00;100905.95;1739454;81;25863;-53
2022/06/24 03:06:00;;;;;;;;;;;;;;;18.25;58.04;100901.27;1739876;81;25681;-55
2022/06/24 03:08:27;;;;;;;;;;;;;;;18.28;57.90;100907.22;1744669;82;26541;-53
2022/06/24 03:10:55;;;;;;;;;;;;;;;18.32;57.82;100910.42;1740283;81;25780;-55
2022/06/24 03:13:22;;;;;;;;;;;;;;;18.38;57.88;100909.67;1742576;81;27396;-55
2022/06/24 03:15:49;;;;;;;;;;;;;;;18.44;57.62;100909.45;1740768;81;25866;-54
2022/06/24 03:18:16;;;;;;;;;;;;;;;18.45;57.83;100911.16;1741728;81;25910;-55
2022/06/24 03:20:43;;;;;;;;;;;;;;;18.45;57.52;100910.63;1743256;82;25798;-55
2022/06/24 03:23:10;;;;;;;;;;;;;;;18.48;57.50;100917.58;1742916;80;25497;-55
2022/06/24 03:25:37;;;;;;;;;;;;;;;18.47;57.56;100921.33;1738922;81;28379;-54
2022/06/24 03:28:05;;;;;;;;;;;;;;;18.48;57.55;100917.58;1741588;81;25891;-54
2022/06/24 03:30:32;;;;;;;;;;;;;;;18.49;57.44;100921.99;1741168;82;25699;-55
2022/06/24 03:33:00;;;;;;;;;;;;;;;18.52;57.64;100928.94;1741614;81;25763;-55
2022/06/24 03:35:27;;;;;;;;;;;;;;;18.52;58.01;100936.62;1739800;81;25688;-56
2022/06/24 03:37:54;;;;;;;;;;;;;;;18.50;57.59;100940.03;1743238;82;27578;-56
2022/06/24 03:40:20;;;;;;;;;;;;;;;18.49;58.10;100943.78;1746094;80;25744;-56
2022/06/24 03:42:47;;;;;;;;;;;;;;;18.46;57.89;100936.84;1760548;80;25837;-55
2022/06/24 03:45:14;;;;;;;;;;;;;;;18.45;57.83;100946.03;1748103;80;25812;-55
2022/06/24 03:47:42;;;;;;;;;;;;;;;18.44;57.79;100942.98;1745049;81;25696;-55
2022/06/24 03:50:09;;;;;;;;;;;;;;;18.47;57.93;100945.84;1751501;80;27568;-55
2022/06/24 03:52:36;;;;;;;;;;;;;;;18.51;57.81;100948.54;1756562;80;25767;-55
2022/06/24 03:55:03;;;;;;;;;;;;;;;18.55;57.81;100951.24;1745895;80;25818;-55
2022/06/24 03:57:30;;;;;;;;;;;;;;;18.59;57.75;100954.44;1758902;80;26407;-56
2022/06/24 03:59:56;;;;;;;;;;;;;;;18.60;57.90;100954.24;1748471;80;25784;-56
2022/06/24 04:02:23;;;;;;;;;;;;;;;18.63;57.78;100951.66;1747861;81;27462;-55
2022/06/24 04:04:50;;;;;;;;;;;;;;;18.66;57.72;100951.30;1752436;80;25889;-56
2022/06/24 04:07:17;;;;;;;;;;;;;;;18.70;57.78;100953.14;1749789;80;25754;-54
2022/06/24 04:09:43;;;;;;;;;;;;;;;18.73;57.49;100953.61;1749278;80;25841;-54
2022/06/24 04:12:10;;;;;;;;;;;;;;;18.79;57.53;100956.11;1753559;80;25726;-53
2022/06/24 04:17:12;;;;;;;;;;;;;;;18.91;57.22;100964.17;1705475;81;25900;-54
2022/06/24 04:19:38;;;;;;;;;;;;;;;18.97;57.09;100968.56;1747986;80;25818;-55
2022/06/24 04:22:05;;;;;;;;;;;;;;;19.02;56.86;100971.56;1753031;80;25762;-55
2022/06/24 04:24:32;;;;;;;;;;;;;;;18.98;56.74;100962.91;1751375;80;25869;-55
2022/06/24 04:26:58;;;;;;;;;;;;;;;19.02;56.73;100967.47;1752692;80;27524;-55
2022/06/24 04:29:25;;;;;;;;;;;;;;;19.07;56.55;100971.33;1752091;80;25858;-54
2022/06/24 04:31:51;;;;;;;;;;;;;;;19.12;56.47;100963.95;1764364;80;25851;-55
2022/06/24 04:34:18;;;;;;;;;;;;;;;19.15;56.57;100964.95;1752910;80;27916;-55
2022/06/24 04:36:44;;;;;;;;;;;;;;;19.23;56.63;100962.13;1755687;80;25941;-55
2022/06/24 04:39:11;;;;;;;;;;;;;;;19.28;56.74;100967.52;1748518;80;28368;-56
2022/06/24 04:41:37;;;;;;;;;;;;;;;19.31;56.50;100970.73;1749698;80;25751;-54
2022/06/24 04:44:04;;;;;;;;;;;;;;;19.40;56.33;100978.28;1744333;80;25818;-56
2022/06/24 04:46:31;;;;;;;;;;;;;;;19.47;56.25;100977.02;1736438;80;25824;-54
2022/06/24 04:48:57;;;;;;;;;;;;;;;19.50;56.05;100977.48;1719373;81;25793;-53
2022/06/24 04:51:27;;;;;;;;;;;;;;;19.58;55.84;100977.04;1715250;81;29507;-55
2022/06/24 04:53:54;;;;;;;;;;;;;;;19.67;55.78;100973.16;1727495;81;25934;-54
2022/06/24 04:56:22;;;;;;;;;;;;;;;19.71;55.56;100975.84;1724484;81;26546;-54
2022/06/24 04:58:49;;;;;;;;;;;;;;;19.76;55.42;100974.74;1712440;80;25892;-54
2022/06/24 05:01:15;;;;;;;;;;;;;;;19.75;55.30;100973.05;1719548;81;25800;-55
2022/06/24 05:03:43;;;;;;;;;;;;;;;19.78;55.28;100974.54;1719242;81;27514;-55
2022/06/24 05:06:10;;;;;;;;;;;;;;;19.78;55.02;100971.81;1714772;80;25851;-55
2022/06/24 05:08:36;;;;;;;;;;;;;;;19.81;55.13;100969.54;1721537;81;25857;-55
2022/06/24 05:11:03;;;;;;;;;;;;;;;19.88;55.09;100973.75;1719612;81;26296;-55
2022/06/24 05:13:30;;;;;;;;;;;;;;;19.93;55.09;100969.07;1690049;83;25877;-55
2022/06/24 05:15:58;;;;;;;;;;;;;;;20.00;55.05;100968.62;1725980;81;27473;-56
2022/06/24 05:18:24;;;;;;;;;;;;;;;20.03;54.88;100976.44;1719252;81;26368;-55
2022/06/24 05:20:51;;;;;;;;;;;;;;;20.06;54.73;100973.83;1722429;81;25812;-54
2022/06/24 05:23:17;;;;;;;;;;;;;;;20.09;54.54;100972.08;1723277;80;25811;-55
2022/06/24 05:25:44;;;;;;;;;;;;;;;20.10;54.54;100973.78;1719166;81;25436;-55
2022/06/24 05:28:11;;;;;;;;;;;;;;;20.14;54.47;100970.97;1718865;80;28310;-54
2022/06/24 05:30:37;;;;;;;;;;;;;;;20.19;54.52;100973.98;1725671;81;25798;-55
2022/06/24 05:33:05;;;;;;;;;;;;;;;20.22;54.29;100973.56;1711737;81;25892;-55
2022/06/24 05:35:31;;;;;;;;;;;;;;;20.27;54.26;100971.62;1726343;81;26643;-55
2022/06/24 05:37:58;;;;;;;;;;;;;;;20.32;54.08;100971.36;1717005;81;25823;-54
2022/06/24 05:40:25;;;;;;;;;;;;;;;20.38;54.13;100981.20;1712433;82;27584;-53
2022/06/24 05:42:52;;;;;;;;;;;;;;;20.31;54.13;100975.66;1689861;83;25762;-55
2022/06/24 05:45:19;;;;;;;;;;;;;;;20.27;54.19;100975.71;1704541;83;25934;-56
2022/06/24 05:47:46;;;;;;;;;;;;;;;20.23;54.34;100977.16;1737703;82;25817;-55
2022/06/24 05:50:13;;;;;;;;;;;;;;;20.18;54.47;100979.11;1729759;81;26030;-55
2022/06/24 05:55:24;;;;;;;;;;;;;;;20.26;54.58;100981.71;1726688;82;25672;-54
2022/06/24 05:57:51;;;;;;;;;;;;;;;20.34;54.63;100991.67;1738474;80;25885;-53
2022/06/24 06:00:18;;;;;;;;;;;;;;;20.35;54.43;100992.50;1728025;81;25856;-53
2022/06/24 06:02:44;;;;;;;;;;;;;;;20.45;54.76;100990.29;1733496;81;26114;-53
2022/06/24 06:05:11;;;;;;;;;;;;;;;20.49;54.43;100984.73;1738365;81;27473;-52
2022/06/24 06:07:38;;;;;;;;;;;;;;;20.48;54.13;100985.81;1735193;81;25911;-54
2022/06/24 06:10:06;;;;;;;;;;;;;;;20.54;54.27;100982.28;1729281;80;25460;-54
2022/06/24 06:12:35;;;;;;;;;;;;;;;20.62;53.87;100986.23;1735427;81;26638;-54
2022/06/24 06:15:02;;;;;;;;;;;;;;;20.73;53.83;100982.14;1728140;81;25863;-54
2022/06/24 06:17:29;;;;;;;;;;;;;;;20.85;53.82;100975.59;1718606;82;28339;-54
2022/06/24 06:19:56;;;;;;;;;;;;;;;20.97;52.71;100975.91;1717935;81;25974;-55
2022/06/24 06:22:22;;;;;;;;;;;;;;;21.04;52.37;100969.95;1732303;81;26100;-56
2022/06/24 06:24:49;;;;;;;;;;;;;;;21.07;51.94;100975.54;1719577;82;25842;-54
2022/06/24 06:27:16;;;;;;;;;;;;;;;21.13;51.89;100965.16;1722825;81;26445;-53
2022/06/24 06:29:42;;;;;;;;;;;;;;;21.21;51.77;100967.72;1734764;80;27466;-55
2022/06/24 06:32:09;;;;;;;;;;;;;;;21.37;51.29;100969.28;1729057;81;25807;-54
2022/06/24 06:34:35;;;;;;;;;;;;;;;21.49;50.96;100961.33;1713290;82;25756;-55
2022/06/24 06:37:03;;;;;;;;;;;;;;;21.63;50.79;100965.00;1722212;81;26650;-55
2022/06/24 06:39:30;;;;;;;;;;;;;;;21.78;50.60;100969.48;1711123;81;26105;-55
2022/06/24 06:41:57;;;;;;;;;;;;;;;21.84;50.58;100970.02;1691566;82;27447;-56
2022/06/24 06:44:23;;;;;;;;;;;;;;;21.96;50.55;100966.16;1688245;82;25705;-53
2022/06/24 06:46:50;;;;;;;;;;;;;;;22.02;49.51;100966.68;1723370;81;25969;-55
2022/06/24 06:49:17;;;;;;;;;;;;;;;22.15;49.70;100965.35;1740558;82;26415;-55
2022/06/24 06:51:43;;;;;;;;;;;;;;;22.36;48.87;100962.95;1742523;81;25886;-55
2022/06/24 06:54:11;;;;;;;;;;;;;;;22.56;48.43;100962.65;1739058;81;29566;-56
2022/06/24 06:56:39;;;;;;;;;;;;;;;22.68;48.38;100960.97;1739280;80;25888;-55
2022/06/24 06:59:05;;;;;;;;;;;;;;;22.86;48.01;100953.98;1743341;81;25881;-55
2022/06/24 07:01:31;;;;;;;;;;;;;;;22.97;46.88;100953.34;1742730;81;25835;-55
2022/06/24 07:03:59;;;;;;;;;;;;;;;22.91;47.01;100951.43;1737662;81;25904;-55
2022/06/24 07:06:26;;;;;;;;;;;;;;;23.02;47.28;100953.52;1740771;81;27499;-55
2022/06/24 07:08:53;;;;;;;;;;;;;;;23.23;46.69;100948.32;1741460;81;25907;-55
2022/06/24 07:11:19;;;;;;;;;;;;;;;23.42;46.46;100946.58;1742560;81;25431;-55
2022/06/24 07:13:46;;;;;;;;;;;;;;;23.60;46.17;100949.97;1739880;81;25930;-55
2022/06/24 07:16:13;;;;;;;;;;;;;;;23.85;45.13;100946.45;1735170;81;25796;-55
2022/06/24 07:18:39;;;;;;;;;;;;;;;23.98;45.31;100949.67;1737797;81;27475;-56
2022/06/24 07:21:06;;;;;;;;;;;;;;;24.12;44.22;100950.42;1738591;82;26360;-55
2022/06/24 07:23:33;;;;;;;;;;;;;;;24.19;43.94;100947.12;1741054;81;25860;-55
2022/06/24 07:26:00;;;;;;;;;;;;;;;24.30;44.03;100939.20;1739245;81;25800;-55
2022/06/24 07:28:27;;;;;;;;;;;;;;;24.49;43.14;100938.73;1740939;81;25857;-55
2022/06/24 07:30:53;;;;;;;;;;;;;;;24.46;42.84;100940.03;1739886;81;27462;-55
2022/06/24 07:33:22;;;;;;;;;;;;;;;24.60;43.26;100942.66;1743093;81;25760;-55
2022/06/24 07:35:49;;;;;;;;;;;;;;;24.79;43.20;100935.30;1743570;81;25826;-56
2022/06/24 07:38:15;;;;;;;;;;;;;;;25.01;40.93;100935.73;1739397;81;25786;-55
2022/06/24 07:40:42;;;;;;;;;;;;;;;25.11;41.04;100931.05;1725538;81;25869;-56
2022/06/24 07:43:09;;;;;;;;;;;;;;;25.20;40.70;100935.70;1718987;81;28434;-56
2022/06/24 07:45:35;;;;;;;;;;;;;;;25.29;39.65;100925.55;1714733;82;25738;-55
2022/06/24 07:48:02;;;;;;;;;;;;;;;25.37;39.50;100924.92;1748606;80;25699;-55
2022/06/24 07:50:29;;;;;;;;;;;;;;;25.41;38.89;100930.31;1754213;80;25886;-56
2022/06/24 07:52:56;;;;;;;;;;;;;;;25.45;38.48;100927.38;1752533;80;25814;-56
2022/06/24 07:58:08;;;;;;;;;;;;;;;25.39;38.89;100928.29;1764312;80;26282;-56
2022/06/24 08:00:35;;;;;;;;;;;;;;;25.33;38.88;100931.98;1749595;80;25826;-56
2022/06/24 08:03:02;;;;;;;;;;;;;;;25.27;38.96;100932.36;1757100;80;26544;-56
2022/06/24 08:05:29;;;;;;;;;;;;;;;25.20;38.83;100934.33;1752006;80;25892;-56
2022/06/24 08:07:55;;;;;;;;;;;;;;;25.14;37.98;100931.44;1744234;81;27578;-56
2022/06/24 08:10:21;;;;;;;;;;;;;;;25.08;38.25;100933.73;1743964;81;25796;-55
2022/06/24 08:12:48;;;;;;;;;;;;;;;24.93;38.31;100936.86;1755202;80;26881;-55
2022/06/24 08:15:16;;;;;;;;;;;;;;;24.79;39.23;100939.42;1748580;80;25850;-56
2022/06/24 08:17:43;;;;;;;;;;;;;;;24.74;39.82;100945.64;1764107;80;25471;-56
2022/06/24 08:20:11;;;;;;;;;;;;;;;24.74;39.79;100948.39;1759344;80;27390;-56
2022/06/24 08:22:37;;;;;;;;;;;;;;;24.74;40.03;100942.03;1762714;80;25928;-55
2022/06/24 08:25:05;;;;;;;;;;;;;;;24.66;39.61;100938.47;1754377;80;25770;-55
2022/06/24 08:27:31;;;;;;;;;;;;;;;24.61;39.83;100946.55;1753795;80;25825;-56
2022/06/24 08:29:58;;;;;;;;;;;;;;;24.55;39.60;100941.95;1746525;80;25978;-56
2022/06/24 08:32:25;;;;;;;;;;;;;;;24.57;39.98;100937.08;1750193;80;27431;-56
2022/06/24 08:34:52;;;;;;;;;;;;;;;24.74;40.27;100939.27;1754729;80;25680;-55
2022/06/24 08:37:18;;;;;;;;;;;;;;;24.91;40.04;100934.04;1761887;80;25858;-56
2022/06/24 08:39:45;;;;;;;;;;;;;;;25.13;40.12;100933.88;1728924;80;26097;-55
2022/06/24 08:42:12;;;;;;;;;;;;;;;25.37;39.30;100931.80;1748260;81;25683;-56
2022/06/24 08:44:40;;;;;;;;;;;;;;;25.49;39.15;100927.23;1753858;80;27443;-55
2022/06/24 08:47:09;;;;;;;;;;;;;;;25.54;38.57;100932.88;1741159;80;25476;-56
2022/06/24 08:49:36;;;;;;;;;;;;;;;25.50;37.94;100923.94;1710013;81;25746;-56
2022/06/24 08:52:05;;;;;;;;;;;;;;;25.46;38.33;100924.94;1724535;81;26263;-56
2022/06/24 08:54:31;;;;;;;;;;;;;;;25.50;38.68;100922.55;1726395;81;25451;-56
2022/06/24 08:56:58;;;;;;;;;;;;;;;25.71;38.13;100922.06;1704633;81;27492;-56
2022/06/24 08:59:29;;;;;;;;;;;;;;;25.83;38.34;100928.98;1720400;81;26056;-55
2022/06/24 09:01:56;;;;;;;;;;;;;;;25.98;38.78;100920.29;1715906;81;26426;-55
2022/06/24 09:04:23;;;;;;;;;;;;;;;26.14;38.20;100916.58;1709421;82;26046;-56
2022/06/24 09:06:50;;;;;;;;;;;;;;;26.30;36.97;100918.63;1720327;81;25774;-55
2022/06/24 09:09:24;;;;;;;;;;;;;;;26.36;36.08;100917.67;1720794;81;27655;-54
2022/06/24 09:11:56;;;;;;;;;;;;;;;26.45;36.01;100913.20;1714708;81;25833;-55
2022/06/24 09:14:43;;;;;;;;;;;;;;;26.55;36.11;100906.53;1714842;81;25910;-56
2022/06/24 09:17:11;;;;;;;;;;;;;;;26.67;35.72;100908.76;1713693;80;25809;-54
2022/06/24 09:19:38;;;;;;;;;;;;;;;26.63;35.25;100903.95;1718265;82;25837;-55
2022/06/24 09:22:05;;;;;;;;;;;;;;;26.48;33.77;100900.30;1710878;82;28326;-55
2022/06/24 09:24:48;;;;;;;;;;;;;;;26.20;34.66;100905.44;1719787;81;25940;-55
2022/06/24 09:27:15;;;;;;;;;;;;;;;25.96;34.90;100906.42;1718298;81;25859;-55
2022/06/24 09:29:48;;;;;;;;;;;;;;;25.72;34.96;100910.48;1714762;82;25779;-55
2022/06/24 09:32:15;;;;;;;;;;;;;;;25.55;34.94;100911.70;1708678;82;25976;-55
2022/06/24 09:35:09;;;;;;;;;;;;;;;25.36;35.27;100917.20;1715712;81;27534;-56
2022/06/24 09:37:43;;;;;;;;;;;;;;;25.23;35.14;100912.71;1718516;80;25997;-55
2022/06/24 09:40:26;;;;;;;;;;;;;;;25.14;36.07;100914.92;1728796;80;26673;-55
2022/06/24 09:42:54;;;;;;;;;;;;;;;25.17;35.54;100913.61;1728544;81;25915;-55
2022/06/24 09:45:22;;;;;;;;;;;;;;;25.11;35.82;100918.13;1733199;80;25837;-55
2022/06/24 09:47:50;;;;;;;;;;;;;;;25.07;35.52;100911.41;1728031;82;27549;-55
2022/06/24 09:50:19;;;;;;;;;;;;;;;25.01;35.62;100912.34;1721165;81;25820;-54
2022/06/24 09:52:46;;;;;;;;;;;;;;;24.94;36.09;100911.03;1726681;80;25835;-55
2022/06/24 09:55:13;;;;;;;;;;;;;;;24.96;36.02;100914.41;1727489;80;25845;-55
2022/06/24 09:57:40;;;;;;;;;;;;;;;24.98;36.14;100908.66;1726327;81;25733;-55
2022/06/24 10:02:54;;;;;;;;;;;;;;;25.11;36.05;100904.91;1731449;80;27282;-55
2022/06/24 10:05:21;;;;;;;;;;;;;;;25.18;36.23;100907.04;1727929;81;25918;-55
2022/06/24 10:07:48;;;;;;;;;;;;;;;25.23;36.45;100903.59;1721408;80;25832;-54
2022/06/24 10:10:17;;;;;;;;;;;;;;;25.35;35.99;100904.51;1728291;80;25892;-55
2022/06/24 10:12:47;;;;;;;;;;;;;;;25.50;35.92;100902.76;1736258;81;27541;-54
2022/06/24 10:15:15;;;;;;;;;;;;;;;25.74;35.47;100897.33;1733030;80;25719;-56
2022/06/24 10:17:43;;;;;;;;;;;;;;;25.87;35.69;100905.94;1703534;81;25807;-55
2022/06/24 10:20:12;;;;;;;;;;;;;;;26.02;35.19;100894.47;1707742;81;25975;-55
2022/06/24 10:22:45;;;;;;;;;;;;;;;26.07;35.00;100893.21;1709199;82;25748;-55
2022/06/24 10:25:15;;;;;;;;;;;;;;;26.13;34.54;100895.07;1712048;81;28314;-54
2022/06/24 10:28:03;;;;;;;;;;;;;;;26.17;35.06;100891.30;1707683;81;26136;-54
2022/06/24 10:30:42;;;;;;;;;;;;;;;26.30;35.47;100891.06;1709958;81;25771;-55
2022/06/24 10:33:18;;;;;;;;;;;;;;;26.50;35.33;100898.97;1705194;81;25859;-55
2022/06/24 10:35:58;;;;;;;;;;;;;;;26.74;34.64;100882.42;1713663;81;25781;-55
2022/06/24 10:38:27;;;;;;;;;;;;;;;26.96;34.16;100889.56;1700907;81;28303;-55
2022/06/24 10:40:55;;;;;;;;;;;;;;;27.23;33.33;100882.11;1698314;82;25983;-55
2022/06/24 10:43:43;;;;;;;;;;;;;;;27.41;33.14;100882.45;1677443;83;25996;-55
2022/06/24 10:46:18;;;;;;;;;;;;;;;27.63;32.05;100875.71;1704929;82;26916;-56
2022/06/24 10:48:51;;;;;;;;;;;;;;;27.78;31.60;100879.86;1725890;80;26506;-55
2022/06/24 10:51:20;;;;;;;;;;;;;;;27.87;31.66;100876.12;1725324;80;27588;-55
2022/06/24 10:54:06;;;;;;;;;;;;;;;27.92;30.79;100872.91;1731793;80;25811;-56
2022/06/24 10:56:47;;;;;;;;;;;;;;;27.65;31.76;100872.16;1731282;81;25704;-55
2022/06/24 10:59:19;;;;;;;;;;;;;;;27.33;31.68;100874.03;1726308;80;26507;-55
2022/06/24 11:01:48;;;;;;;;;;;;;;;27.14;31.67;100873.36;1720386;81;25824;-56
2022/06/24 11:04:27;;;;;;;;;;;;;;;26.96;32.16;100875.76;1723456;81;27483;-56
2022/06/24 11:07:14;;;;;;;;;;;;;;;26.79;32.31;100870.14;1725640;81;25880;-55
2022/06/24 11:09:41;;;;;;;;;;;;;;;26.67;32.17;100878.41;1701220;82;25859;-55
2022/06/24 11:12:28;;;;;;;;;;;;;;;26.54;32.52;100880.87;1702492;82;25807;-56
2022/06/24 11:14:54;;;;;;;;;;;;;;;26.42;33.31;100875.06;1685554;83;25476;-55
2022/06/24 11:17:26;;;;;;;;;;;;;;;26.33;33.55;100867.67;1693975;82;45709;-56
2022/06/24 11:19:54;;;;;;;;;;;;;;;26.35;33.71;100863.63;1697740;82;25766;-55
2022/06/24 11:22:21;;;;;;;;;;;;;;;26.52;33.35;100856.82;1691285;82;26586;-55
2022/06/24 11:24:49;;;;;;;;;;;;;;;26.66;33.73;100864.86;1688655;82;26193;-55
2022/06/24 11:27:15;;;;;;;;;;;;;;;27.14;32.67;100855.97;1688234;83;26607;-56
2022/06/24 11:30:00;;;;;;;;;;;;;;;27.35;32.26;100864.11;1690606;82;27556;-56
2022/06/24 11:32:27;;;;;;;;;;;;;;;27.50;31.96;100853.93;1690679;83;25808;-55
2022/06/24 11:34:53;;;;;;;;;;;;;;;27.70;31.56;100849.87;1690758;82;25856;-55
2022/06/24 11:37:23;;;;;;;;;;;;;;;28.08;31.30;100852.45;1691622;82;25814;-56
2022/06/24 11:39:55;;;;;;;;;;;;;;;28.63;31.04;100849.95;1706465;82;25764;-54
2022/06/24 11:42:24;;;;;;;;;;;;;;;29.09;29.98;100848.38;1726246;82;27551;-56
2022/06/24 11:44:51;;;;;;;;;;;;;;;29.44;29.28;100845.18;1718867;82;25809;-56
2022/06/24 11:47:31;;;;;;;;;;;;;;;29.90;29.67;100845.33;1695661;82;25747;-56
2022/06/24 11:49:58;;;;;;;;;;;;;;;30.21;27.94;100833.94;1696808;83;25939;-56
2022/06/24 11:52:25;;;;;;;;;;;;;;;30.60;27.45;100827.27;1703721;82;25440;-56
2022/06/24 11:54:51;;;;;;;;;;;;;;;31.42;26.36;100821.73;1701668;83;27441;-56
2022/06/24 11:57:20;;;;;;;;;;;;;;;32.35;25.93;100830.13;1694786;82;25936;-56
2022/06/24 11:59:47;;;;;;;;;;;;;;;33.10;25.10;100819.54;1698370;82;25811;-56
2022/06/24 12:02:14;;;;;;;;;;;;;;;33.82;24.01;100815.45;1699811;81;25835;-56
2022/06/24 12:04:42;;;;;;;;;;;;;;;34.64;22.75;100803.48;1694650;82;25797;-57
2022/06/24 12:07:10;;;;;;;;;;;;;;;35.21;23.14;100801.91;1703233;83;27552;-56
2022/06/24 12:09:37;;;;;;;;;;;;;;;35.95;22.67;100806.06;1695190;83;25795;-56
2022/06/24 12:12:11;;;;;;;;;;;;;;;36.65;20.67;100802.21;1699469;82;25554;-56
2022/06/24 12:14:38;;;;;;;;;;;;;;;37.23;20.33;100791.41;1688376;82;26396;-56
2022/06/24 12:17:09;;;;;;;;;;;;;;;37.18;18.87;100797.70;1695921;83;25918;-56
2022/06/24 12:19:40;;;;;;;;;;;;;;;37.45;19.80;100794.56;1695893;83;28295;-56
2022/06/24 12:22:09;;;;;;;;;;;;;;;37.60;19.26;100795.61;1693168;83;25685;-56
2022/06/24 12:24:36;;;;;;;;;;;;;;;37.06;19.49;100792.10;1712334;82;25894;-57
2022/06/24 12:27:05;;;;;;;;;;;;;;;37.35;19.84;100792.23;1715009;82;25866;-56
2022/06/24 12:29:34;;;;;;;;;;;;;;;37.85;19.38;100789.08;1708563;83;26891;-56
2022/06/24 12:32:03;;;;;;;;;;;;;;;36.96;19.29;100792.33;1705839;82;28332;-56
2022/06/24 12:34:32;;;;;;;;;;;;;;;35.85;20.77;100796.68;1700060;83;25837;-58
2022/06/24 12:37:01;;;;;;;;;;;;;;;34.91;21.27;100790.87;1696268;83;25883;-56
2022/06/24 12:39:33;;;;;;;;;;;;;;;34.15;22.12;100793.39;1701709;82;26031;-56
2022/06/24 12:42:00;;;;;;;;;;;;;;;33.42;22.79;100792.33;1718067;81;25791;-56
2022/06/24 12:44:42;;;;;;;;;;;;;;;32.72;23.82;100795.48;1731520;82;27479;-56
2022/06/24 12:52:45;;;;;;;;;;;;;;;32.34;24.37;100793.09;1732817;80;25854;-56
2022/06/24 12:55:14;;;;;;;;;;;;;;;32.01;24.98;100788.41;1723898;81;25540;-55
2022/06/24 12:57:41;;;;;;;;;;;;;;;31.50;25.85;100787.29;1734147;81;28293;-59
2022/06/24 13:00:10;;;;;;;;;;;;;;;31.27;25.95;100786.41;1735739;81;25763;-56
2022/06/24 13:02:39;;;;;;;;;;;;;;;31.08;26.22;100789.67;1719599;82;25777;-56